Lymm, United Kingdom
Current Conditions -  °F | °C
As of 8:20 AM on Friday 24 Oct 2014 (Local Time) from EGCC Reporting Station
Light Rain Light Rain  
Wind Chill: 52°   Ceiling: 600
Heat Index: 52°   Visibility: 0.75mi
Dew Point: 52°   Wind: 5mph
Humidity: 100%   Direction: 190°S
Pressure: 29.88"   Gusts: NA
Location:  53.38°N, 2.48°W
Report Text: EGCC 240720Z 19004KT 1200 R23L/P1500 -RADZ FEW001 SCT002 BKN006 11/11 Q1012 TEMPO 6000 BKN003
Loading
Personal Weather Stations






























Interactive Weather Map
Tropical Storm Tracking
New forecast layout! Learn more

10-Day Weather Forecast

Advertisements
Track Severe Weather on mobile